Time;durP1;ratioP1;P1;durP2;ratioP2;P2;SDS_P1;SDS_P2;PMS_P1;PMS_P2;Temp;Humidity;BMP_temperature;BMP_pressure;BME280_temperature;BME280_humidity;BME280_pressure;Samples;Min_cycle;Max_cycle;Signal;HPM_P1;HPM_P2
2023/10/19 00:00:48;;;;;;;25.13;12.17;;;;;;;;;;4950401;28;20107;-71
2023/10/19 00:03:13;;;;;;;28.37;15.03;;;;;;;;;;4951343;29;20020;-70
2023/10/19 00:05:39;;;;;;;19.70;10.63;;;;;;;;;;4951336;28;20046;-70
2023/10/19 00:08:36;;;;;;;25.90;14.97;;;;;;;;;;4953051;28;20137;-72
2023/10/19 00:13:35;;;;;;;26.10;13.30;;;;;;;;;;4950642;28;20061;-68
2023/10/19 00:16:00;;;;;;;18.43;10.20;;;;;;;;;;4950759;29;20066;-72
2023/10/19 00:18:27;;;;;;;21.50;10.43;;;;;;;;;;4956268;28;20054;-69
2023/10/19 00:20:59;;;;;;;23.53;13.00;;;;;;;;;;5010317;28;20071;-68
2023/10/19 00:23:31;;;;;;;21.90;11.83;;;;;;;;;;5015831;28;20062;-67
2023/10/19 00:26:05;;;;;;;23.67;12.67;;;;;;;;;;5012741;28;20025;-70
2023/10/19 00:28:34;;;;;;;26.77;13.90;;;;;;;;;;5010541;28;20460;-73
2023/10/19 00:31:03;;;;;;;20.43;11.70;;;;;;;;;;5009880;28;20057;-73
2023/10/19 00:33:28;;;;;;;23.77;12.77;;;;;;;;;;5010793;28;20950;-67
2023/10/19 00:35:57;;;;;;;17.37;9.53;;;;;;;;;;5012759;28;20032;-65
2023/10/19 00:38:39;;;;;;;22.17;12.03;;;;;;;;;;5014473;28;20014;-68
2023/10/19 00:43:46;;;;;;;25.85;13.18;;;;;;;;;;5011653;28;20392;-70
2023/10/19 00:48:50;;;;;;;26.02;13.85;;;;;;;;;;5010674;28;20036;-64
2023/10/19 00:51:27;;;;;;;28.17;11.87;;;;;;;;;;5010314;28;20117;-63
2023/10/19 00:53:56;;;;;;;25.63;14.00;;;;;;;;;;5014944;28;20036;-67
2023/10/19 00:56:23;;;;;;;24.80;12.77;;;;;;;;;;5020895;28;20030;-69
2023/10/19 00:58:53;;;;;;;28.40;13.20;;;;;;;;;;5010959;28;20049;-64
2023/10/19 01:04:29;;;;;;;1.07;0.97;;;;;;;;;;5014287;28;20020;-64
2023/10/19 01:07:12;;;;;;;1.37;1.27;;;;;;;;;;5010589;28;20021;-68
2023/10/19 01:09:38;;;;;;;4.00;1.95;;;;;;;;;;5014283;28;20026;-65
2023/10/19 01:12:25;;;;;;;1.80;1.63;;;;;;;;;;5014856;28;20452;-63
2023/10/19 01:15:07;;;;;;;0.90;0.87;;;;;;;;;;5012558;28;20034;-63
2023/10/19 01:17:38;;;;;;;2.27;1.47;;;;;;;;;;5011194;28;20397;-65
2023/10/19 01:20:12;;;;;;;0.80;0.80;;;;;;;;;;5010360;28;20479;-64
2023/10/19 01:22:37;;;;;;;5.53;1.90;;;;;;;;;;5010145;28;20472;-62
2023/10/19 01:25:04;;;;;;;4.73;2.10;;;;;;;;;;5013091;28;20028;-64
2023/10/19 01:27:29;;;;;;;3.13;2.50;;;;;;;;;;5010646;28;20075;-63
2023/10/19 01:30:00;;;;;;;1.63;1.47;;;;;;;;;;5011083;28;20523;-67
2023/10/19 01:32:28;;;;;;;0.70;0.70;;;;;;;;;;5011289;28;20515;-67
2023/10/19 01:34:53;;;;;;;3.10;1.73;;;;;;;;;;5009881;28;20030;-65
2023/10/19 01:37:20;;;;;;;3.17;1.37;;;;;;;;;;5011016;28;20052;-67
2023/10/19 01:39:46;;;;;;;1.00;0.90;;;;;;;;;;5014111;28;20464;-63
2023/10/19 01:42:11;;;;;;;2.60;0.93;;;;;;;;;;5013915;28;20036;-63
2023/10/19 01:44:37;;;;;;;1.23;1.13;;;;;;;;;;5008898;28;20030;-64
2023/10/19 01:47:05;;;;;;;2.47;2.10;;;;;;;;;;5010548;28;20037;-65
2023/10/19 01:49:30;;;;;;;2.57;2.10;;;;;;;;;;5009722;28;20029;-66
2023/10/19 01:51:56;;;;;;;1.97;1.37;;;;;;;;;;5009691;28;20021;-62
2023/10/19 01:54:24;;;;;;;1.13;1.03;;;;;;;;;;5010491;28;20029;-65
2023/10/19 01:56:54;;;;;;;2.50;1.63;;;;;;;;;;5011283;28;20025;-67
2023/10/19 01:59:20;;;;;;;1.03;0.93;;;;;;;;;;5011656;28;20529;-63
2023/10/19 02:01:46;;;;;;;0.83;0.80;;;;;;;;;;5015688;28;20053;-70
2023/10/19 02:04:13;;;;;;;0.77;0.77;;;;;;;;;;5012012;28;20537;-65
2023/10/19 02:06:40;;;;;;;5.07;2.27;;;;;;;;;;5009287;28;20021;-67
2023/10/19 02:11:46;;;;;;;1.17;1.07;;;;;;;;;;5010056;28;20087;-65
2023/10/19 02:14:14;;;;;;;1.13;1.03;;;;;;;;;;5009586;28;20391;-66
2023/10/19 02:16:46;;;;;;;0.30;0.30;;;;;;;;;;5009922;28;20021;-65
2023/10/19 02:19:12;;;;;;;1.93;1.30;;;;;;;;;;5012672;28;20042;-65
2023/10/19 02:21:40;;;;;;;1.53;1.43;;;;;;;;;;5013314;28;20029;-66
2023/10/19 02:24:07;;;;;;;2.10;1.00;;;;;;;;;;5010885;28;20097;-65
2023/10/19 02:26:32;;;;;;;3.83;2.10;;;;;;;;;;5011440;28;20014;-63
2023/10/19 02:28:58;;;;;;;1.57;1.10;;;;;;;;;;5007066;28;20168;-63
2023/10/19 02:31:24;;;;;;;7.20;2.00;;;;;;;;;;5009738;28;20030;-63
2023/10/19 02:34:00;;;;;;;1.70;1.60;;;;;;;;;;5009340;28;20479;-63
2023/10/19 02:36:29;;;;;;;2.67;2.37;;;;;;;;;;5009288;28;20528;-65
2023/10/19 02:38:54;;;;;;;0.67;0.53;;;;;;;;;;5011809;28;20021;-69
2023/10/19 02:41:20;;;;;;;1.00;0.93;;;;;;;;;;5010668;28;20021;-63
2023/10/19 02:43:47;;;;;;;2.00;1.40;;;;;;;;;;5009583;28;20025;-68
2023/10/19 02:46:17;;;;;;;1.57;1.47;;;;;;;;;;5009160;28;20018;-63
2023/10/19 02:48:47;;;;;;;1.70;1.13;;;;;;;;;;5007799;28;20056;-66
2023/10/19 02:51:12;;;;;;;3.03;1.50;;;;;;;;;;5006996;28;20495;-65
2023/10/19 02:53:39;;;;;;;2.17;1.97;;;;;;;;;;5018930;28;20018;-65
2023/10/19 02:56:19;;;;;;;1.13;1.03;;;;;;;;;;5009390;28;20487;-63
2023/10/19 02:58:48;;;;;;;2.43;1.57;;;;;;;;;;5009291;28;20026;-64
2023/10/19 03:01:21;;;;;;;2.17;1.80;;;;;;;;;;5009370;28;20041;-65
2023/10/19 03:03:47;;;;;;;2.60;1.50;;;;;;;;;;5009368;28;20018;-65
2023/10/19 03:06:12;;;;;;;2.33;2.13;;;;;;;;;;5009137;28;20377;-70
2023/10/19 03:08:37;;;;;;;1.40;0.93;;;;;;;;;;5009458;28;20026;-66
2023/10/19 03:11:05;;;;;;;1.57;1.47;;;;;;;;;;5010253;28;20071;-67
2023/10/19 03:13:33;;;;;;;0.97;0.93;;;;;;;;;;5014176;28;20022;-65
2023/10/19 03:16:00;;;;;;;0.60;0.60;;;;;;;;;;5009904;28;20405;-71
2023/10/19 03:18:26;;;;;;;2.00;1.63;;;;;;;;;;5016517;28;20478;-70
2023/10/19 03:20:51;;;;;;;0.97;0.93;;;;;;;;;;5014759;28;20089;-64
2023/10/19 03:23:17;;;;;;;1.33;1.23;;;;;;;;;;5016144;28;20028;-67
2023/10/19 03:28:26;;;;;;;0.70;0.70;;;;;;;;;;5012167;28;20040;-63
2023/10/19 03:30:51;;;;;;;4.47;2.30;;;;;;;;;;5011772;28;20022;-69
2023/10/19 03:33:18;;;;;;;0.70;0.70;;;;;;;;;;5014877;28;20624;-67
2023/10/19 03:35:43;;;;;;;0.40;0.40;;;;;;;;;;5011653;28;20453;-66
2023/10/19 03:38:18;;;;;;;1.83;1.23;;;;;;;;;;5011732;28;20030;-63
2023/10/19 03:40:59;;;;;;;0.73;0.73;;;;;;;;;;5016005;28;20054;-63
2023/10/19 03:43:27;;;;;;;1.53;1.13;;;;;;;;;;5011809;28;20075;-63
2023/10/19 03:45:52;;;;;;;0.60;0.60;;;;;;;;;;5015501;28;20025;-65
2023/10/19 03:48:29;;;;;;;0.73;0.70;;;;;;;;;;5009260;28;20022;-64
2023/10/19 03:50:56;;;;;;;1.80;1.20;;;;;;;;;;5013363;28;20585;-64
2023/10/19 03:53:21;;;;;;;2.97;2.67;;;;;;;;;;5016093;28;20487;-68
2023/10/19 03:55:47;;;;;;;1.90;1.03;;;;;;;;;;5014433;28;20034;-66
2023/10/19 03:58:12;;;;;;;0.70;0.70;;;;;;;;;;5014269;28;20021;-63
2023/10/19 04:00:38;;;;;;;0.40;0.40;;;;;;;;;;5016488;28;20383;-67
2023/10/19 04:03:04;;;;;;;2.10;1.37;;;;;;;;;;5013172;28;20021;-64
2023/10/19 04:05:30;;;;;;;0.60;0.60;;;;;;;;;;5012060;28;20018;-64
2023/10/19 04:07:57;;;;;;;1.30;1.20;;;;;;;;;;5011900;28;20041;-64
2023/10/19 04:13:00;;;;;;;1.03;0.77;;;;;;;;;;5011506;28;20200;-63
2023/10/19 04:15:26;;;;;;;0.57;0.57;;;;;;;;;;5011393;28;20042;-63
2023/10/19 04:17:52;;;;;;;0.63;0.63;;;;;;;;;;5010772;28;20045;-64
2023/10/19 04:22:45;;;;;;;1.30;0.93;;;;;;;;;;5020310;28;20487;-66
2023/10/19 04:25:15;;;;;;;0.33;0.33;;;;;;;;;;5025842;28;20658;-65
2023/10/19 04:27:42;;;;;;;1.67;0.70;;;;;;;;;;5011372;28;20033;-66
2023/10/19 04:30:15;;;;;;;3.27;1.07;;;;;;;;;;5026412;28;20029;-66
2023/10/19 04:32:40;;;;;;;0.63;0.50;;;;;;;;;;5012370;28;20113;-65
2023/10/19 04:35:08;;;;;;;1.07;0.70;;;;;;;;;;5012192;28;20057;-70
2023/10/19 04:37:33;;;;;;;1.07;0.97;;;;;;;;;;5009982;28;20030;-67
2023/10/19 04:40:00;;;;;;;1.17;1.07;;;;;;;;;;5014056;28;20460;-67
2023/10/19 04:42:27;;;;;;;0.63;0.63;;;;;;;;;;5015004;28;20020;-68
2023/10/19 04:44:52;;;;;;;0.60;0.60;;;;;;;;;;5015166;28;20022;-66
2023/10/19 04:47:17;;;;;;;10.20;0.77;;;;;;;;;;4999570;28;20049;-67
2023/10/19 04:49:43;;;;;;;1.17;0.70;;;;;;;;;;5008460;28;20045;-64
2023/10/19 04:52:09;;;;;;;1.90;1.23;;;;;;;;;;5013411;28;20021;-67
2023/10/19 04:54:34;;;;;;;0.50;0.47;;;;;;;;;;5012880;28;20511;-63
2023/10/19 04:57:00;;;;;;;0.47;0.47;;;;;;;;;;5014810;28;20487;-63
2023/10/19 04:59:25;;;;;;;0.53;0.53;;;;;;;;;;5018494;28;20101;-64
2023/10/19 05:01:51;;;;;;;0.47;0.47;;;;;;;;;;5040021;28;20103;-66
2023/10/19 05:04:16;;;;;;;1.60;0.73;;;;;;;;;;5016166;28;20420;-64
2023/10/19 05:06:42;;;;;;;0.57;0.57;;;;;;;;;;5011394;28;20094;-63
2023/10/19 05:09:08;;;;;;;1.53;0.70;;;;;;;;;;5010943;28;20026;-63
2023/10/19 05:11:33;;;;;;;0.40;0.40;;;;;;;;;;5008660;28;20041;-63
2023/10/19 05:13:58;;;;;;;0.67;0.67;;;;;;;;;;5010744;28;20034;-64
2023/10/19 05:16:23;;;;;;;0.70;0.70;;;;;;;;;;5002360;28;20068;-65
2023/10/19 05:18:48;;;;;;;0.47;0.47;;;;;;;;;;5000581;28;20054;-64
2023/10/19 05:21:14;;;;;;;0.50;0.50;;;;;;;;;;5011010;28;20026;-64
2023/10/19 05:23:39;;;;;;;2.90;1.13;;;;;;;;;;5010734;28;20017;-66
2023/10/19 05:26:04;;;;;;;1.03;0.50;;;;;;;;;;5010823;28;20155;-64
2023/10/19 05:28:30;;;;;;;2.97;1.43;;;;;;;;;;5006960;28;20475;-64
2023/10/19 05:30:55;;;;;;;0.90;0.87;;;;;;;;;;5007006;28;20452;-64
2023/10/19 05:33:20;;;;;;;1.83;1.37;;;;;;;;;;5010802;28;20032;-67
2023/10/19 05:35:47;;;;;;;0.47;0.40;;;;;;;;;;5009067;28;20104;-64
2023/10/19 05:38:12;;;;;;;0.57;0.57;;;;;;;;;;4998537;28;20046;-66
2023/10/19 05:40:38;;;;;;;1.33;1.00;;;;;;;;;;4998572;28;20064;-66
2023/10/19 05:43:04;;;;;;;0.30;0.30;;;;;;;;;;5009168;28;20022;-63
2023/10/19 05:45:29;;;;;;;1.37;0.93;;;;;;;;;;5010894;28;20491;-65
2023/10/19 05:47:57;;;;;;;2.37;1.70;;;;;;;;;;4997868;28;20038;-65
2023/10/19 05:50:23;;;;;;;1.33;0.93;;;;;;;;;;5010483;28;20529;-64
2023/10/19 05:52:48;;;;;;;1.03;0.77;;;;;;;;;;5010395;28;20022;-63
2023/10/19 05:55:14;;;;;;;0.80;0.80;;;;;;;;;;5010429;28;20018;-63
2023/10/19 05:57:42;;;;;;;0.30;0.30;;;;;;;;;;5010547;28;20094;-63
2023/10/19 06:00:12;;;;;;;3.60;1.40;;;;;;;;;;5010411;28;20105;-64
2023/10/19 06:02:37;;;;;;;1.57;1.47;;;;;;;;;;5008464;28;20468;-66
2023/10/19 06:05:04;;;;;;;0.30;0.30;;;;;;;;;;5000464;28;20030;-64
2023/10/19 06:07:30;;;;;;;1.57;1.47;;;;;;;;;;5010636;28;20379;-67
2023/10/19 06:09:55;;;;;;;0.47;0.47;;;;;;;;;;5010129;28;20022;-67
2023/10/19 06:12:20;;;;;;;0.70;0.70;;;;;;;;;;4999122;28;20022;-66
2023/10/19 06:14:45;;;;;;;0.47;0.47;;;;;;;;;;5009031;28;20033;-65
2023/10/19 06:17:10;;;;;;;0.60;0.60;;;;;;;;;;5008237;28;20069;-65
2023/10/19 06:19:37;;;;;;;0.60;0.50;;;;;;;;;;5008844;28;20071;-65
2023/10/19 06:22:03;;;;;;;1.13;1.00;;;;;;;;;;5009402;28;20112;-63
2023/10/19 06:24:29;;;;;;;0.87;0.83;;;;;;;;;;5009784;28;20083;-68
2023/10/19 06:26:55;;;;;;;0.80;0.80;;;;;;;;;;5009787;28;20026;-66
2023/10/19 06:29:20;;;;;;;0.60;0.60;;;;;;;;;;5007855;28;20078;-64
2023/10/19 06:31:45;;;;;;;0.70;0.70;;;;;;;;;;5007120;28;20116;-64
2023/10/19 06:34:11;;;;;;;0.47;0.47;;;;;;;;;;5009801;28;20026;-64
2023/10/19 06:36:37;;;;;;;2.90;1.63;;;;;;;;;;5009699;28;20105;-67
2023/10/19 06:39:05;;;;;;;0.40;0.40;;;;;;;;;;5008336;28;20022;-72
2023/10/19 06:41:31;;;;;;;0.40;0.40;;;;;;;;;;4999583;28;20026;-70
2023/10/19 06:43:58;;;;;;;0.30;0.30;;;;;;;;;;5000986;28;20034;-73
2023/10/19 06:46:23;;;;;;;0.30;0.30;;;;;;;;;;5002040;28;20030;-68
2023/10/19 06:48:50;;;;;;;0.37;0.33;;;;;;;;;;5000307;28;20487;-73
2023/10/19 06:51:16;;;;;;;0.63;0.63;;;;;;;;;;5011381;28;20075;-71
2023/10/19 06:53:41;;;;;;;1.70;1.17;;;;;;;;;;5013076;28;20033;-73
2023/10/19 06:56:07;;;;;;;0.20;0.20;;;;;;;;;;5013302;28;20079;-72
2023/10/19 06:58:33;;;;;;;0.33;0.33;;;;;;;;;;5013366;28;20487;-73
2023/10/19 07:01:05;;;;;;;0.67;0.67;;;;;;;;;;5013371;28;20026;-72
2023/10/19 07:03:30;;;;;;;0.30;0.30;;;;;;;;;;5012823;28;20109;-73
2023/10/19 07:05:58;;;;;;;0.40;0.40;;;;;;;;;;5013114;28;20101;-73
2023/10/19 07:08:23;;;;;;;0.87;0.67;;;;;;;;;;5012780;28;20487;-72
2023/10/19 07:10:49;;;;;;;0.60;0.60;;;;;;;;;;5012950;28;20022;-71
2023/10/19 07:13:15;;;;;;;1.53;0.60;;;;;;;;;;5012811;28;20479;-72
2023/10/19 07:15:41;;;;;;;0.73;0.73;;;;;;;;;;5012984;28;20510;-72
2023/10/19 07:18:06;;;;;;;0.13;0.13;;;;;;;;;;5012833;28;20135;-70
2023/10/19 07:20:32;;;;;;;0.77;0.77;;;;;;;;;;5012448;28;20018;-72
2023/10/19 07:23:03;;;;;;;0.20;0.20;;;;;;;;;;5012724;28;20026;-72
2023/10/19 07:25:29;;;;;;;2.45;0.95;;;;;;;;;;5012988;28;20026;-69
2023/10/19 07:27:54;;;;;;;0.77;0.57;;;;;;;;;;5012490;28;20024;-72
2023/10/19 07:30:26;;;;;;;0.40;0.40;;;;;;;;;;5012876;28;20384;-70
2023/10/19 07:32:54;;;;;;;;;;;;;;;;;;5012975;28;20018;-69
2023/10/19 07:35:19;;;;;;;0.57;0.57;;;;;;;;;;5012861;28;20331;-70
2023/10/19 07:37:45;;;;;;;0.57;0.57;;;;;;;;;;5011222;28;20067;-69
2023/10/19 07:40:13;;;;;;;0.30;0.30;;;;;;;;;;5012771;28;20026;-69
2023/10/19 07:42:39;;;;;;;0.93;0.77;;;;;;;;;;5012045;28;20026;-70
2023/10/19 07:45:07;;;;;;;0.33;0.33;;;;;;;;;;5009656;28;20093;-69
2023/10/19 07:47:32;;;;;;;0.27;0.27;;;;;;;;;;4999792;28;20034;-70
2023/10/19 07:49:59;;;;;;;0.87;0.70;;;;;;;;;;5012382;28;20533;-70
2023/10/19 07:52:24;;;;;;;0.60;0.60;;;;;;;;;;5012276;28;20018;-69
2023/10/19 07:54:49;;;;;;;0.20;0.20;;;;;;;;;;5012274;28;20162;-69
2023/10/19 07:57:15;;;;;;;0.63;0.47;;;;;;;;;;5012025;28;20116;-69
2023/10/19 07:59:42;;;;;;;0.23;0.23;;;;;;;;;;5012122;28;20425;-67
2023/10/19 08:02:08;;;;;;;0.40;0.40;;;;;;;;;;5011587;28;20022;-70
2023/10/19 08:04:33;;;;;;;0.27;0.27;;;;;;;;;;5012381;28;20070;-68
2023/10/19 08:06:58;;;;;;;0.30;0.30;;;;;;;;;;5012344;28;20034;-68
2023/10/19 08:09:24;;;;;;;0.20;0.20;;;;;;;;;;5011090;28;20047;-69
2023/10/19 08:11:53;;;;;;;0.93;0.47;;;;;;;;;;5012278;28;20406;-67
2023/10/19 08:14:19;;;;;;;0.20;0.20;;;;;;;;;;4995461;28;20105;-68
2023/10/19 08:16:45;;;;;;;0.37;0.37;;;;;;;;;;4992290;28;20071;-70
2023/10/19 08:19:12;;;;;;;0.70;0.70;;;;;;;;;;5010121;28;20046;-69
2023/10/19 08:21:37;;;;;;;1.23;1.13;;;;;;;;;;5012081;28;20045;-69
2023/10/19 08:24:04;;;;;;;0.23;0.23;;;;;;;;;;5012015;28;20022;-68
2023/10/19 08:26:30;;;;;;;0.20;0.20;;;;;;;;;;5012029;28;20472;-69
2023/10/19 08:28:55;;;;;;;0.30;0.30;;;;;;;;;;5011955;28;20124;-69
2023/10/19 08:31:20;;;;;;;1.43;1.00;;;;;;;;;;5011651;28;20030;-69
2023/10/19 08:33:46;;;;;;;0.67;0.57;;;;;;;;;;5012065;28;20021;-70
2023/10/19 08:36:19;;;;;;;1.33;1.03;;;;;;;;;;5011658;28;20037;-69
2023/10/19 08:38:44;;;;;;;0.50;0.50;;;;;;;;;;5009975;28;20033;-68
2023/10/19 08:41:10;;;;;;;0.30;0.30;;;;;;;;;;5000456;28;20022;-70
2023/10/19 08:43:39;;;;;;;0.30;0.30;;;;;;;;;;5006015;28;20014;-69
2023/10/19 08:46:05;;;;;;;0.30;0.30;;;;;;;;;;5005825;28;20053;-69
2023/10/19 08:48:34;;;;;;;0.40;0.40;;;;;;;;;;5008276;28;20499;-69
2023/10/19 08:50:59;;;;;;;0.53;0.50;;;;;;;;;;5007551;28;20029;-68
2023/10/19 08:53:25;;;;;;;0.40;0.40;;;;;;;;;;5006219;28;20029;-68
2023/10/19 08:55:54;;;;;;;0.20;0.20;;;;;;;;;;5006363;28;20046;-68
2023/10/19 08:58:20;;;;;;;0.33;0.33;;;;;;;;;;5008984;28;20464;-68
2023/10/19 09:00:46;;;;;;;0.33;0.33;;;;;;;;;;4995657;28;20027;-63
2023/10/19 09:03:13;;;;;;;0.60;0.50;;;;;;;;;;4997768;28;20018;-63
2023/10/19 09:05:40;;;;;;;0.57;0.57;;;;;;;;;;5011251;28;20021;-64
2023/10/19 09:08:06;;;;;;;0.30;0.30;;;;;;;;;;5010530;28;20067;-62
2023/10/19 09:10:31;;;;;;;1.80;0.50;;;;;;;;;;5007279;28;20018;-62
2023/10/19 09:13:04;;;;;;;0.30;0.30;;;;;;;;;;5010735;28;20394;-65
2023/10/19 09:15:32;;;;;;;0.40;0.40;;;;;;;;;;5010544;28;20014;-64
2023/10/19 09:18:13;;;;;;;0.40;0.40;;;;;;;;;;5010604;28;20124;-64
2023/10/19 09:20:38;;;;;;;0.53;0.50;;;;;;;;;;5011065;28;20025;-64
2023/10/19 09:23:04;;;;;;;0.60;0.60;;;;;;;;;;5009240;28;20022;-63
2023/10/19 09:25:29;;;;;;;0.30;0.30;;;;;;;;;;5010686;28;20014;-63
2023/10/19 09:27:54;;;;;;;0.83;0.63;;;;;;;;;;5010741;28;20062;-63
2023/10/19 09:30:21;;;;;;;0.63;0.40;;;;;;;;;;5010965;28;20030;-63
2023/10/19 09:32:47;;;;;;;0.50;0.50;;;;;;;;;;5010732;28;20036;-63
2023/10/19 09:35:15;;;;;;;0.60;0.47;;;;;;;;;;5010676;28;20022;-62
2023/10/19 09:37:41;;;;;;;0.30;0.30;;;;;;;;;;5010780;28;20026;-64
2023/10/19 09:40:11;;;;;;;0.40;0.40;;;;;;;;;;5010989;28;20386;-63
2023/10/19 09:42:37;;;;;;;0.37;0.37;;;;;;;;;;5000223;28;20131;-63
2023/10/19 09:45:05;;;;;;;0.37;0.37;;;;;;;;;;5005897;28;20144;-64
2023/10/19 09:47:35;;;;;;;0.50;0.37;;;;;;;;;;5009050;28;20034;-65
2023/10/19 09:50:01;;;;;;;2.23;1.13;;;;;;;;;;5006941;28;20112;-64
2023/10/19 09:52:27;;;;;;;0.23;0.23;;;;;;;;;;5008001;28;20593;-64
2023/10/19 09:55:06;;;;;;;0.30;0.30;;;;;;;;;;5008753;28;20026;-63
2023/10/19 09:57:34;;;;;;;0.80;0.80;;;;;;;;;;5010130;28;20022;-64
2023/10/19 10:00:08;;;;;;;0.30;0.30;;;;;;;;;;5010143;28;20373;-64
2023/10/19 10:02:33;;;;;;;0.30;0.30;;;;;;;;;;5008415;28;20476;-64
2023/10/19 10:04:59;;;;;;;0.30;0.30;;;;;;;;;;5008449;28;20041;-65
2023/10/19 10:07:25;;;;;;;0.77;0.73;;;;;;;;;;5010441;28;20033;-63
2023/10/19 10:09:50;;;;;;;0.33;0.33;;;;;;;;;;5010254;28;20029;-69
2023/10/19 10:12:16;;;;;;;0.33;0.33;;;;;;;;;;5008272;28;20048;-69
2023/10/19 10:14:52;;;;;;;0.30;0.30;;;;;;;;;;5008223;28;20112;-69
2023/10/19 10:17:18;;;;;;;0.30;0.30;;;;;;;;;;4992328;28;20050;-69
2023/10/19 10:19:43;;;;;;;0.40;0.40;;;;;;;;;;5003239;28;20090;-68
2023/10/19 10:22:14;;;;;;;0.30;0.30;;;;;;;;;;4999785;28;20096;-69
2023/10/19 10:24:42;;;;;;;0.37;0.37;;;;;;;;;;5008529;28;20025;-69
2023/10/19 10:27:08;;;;;;;0.40;0.40;;;;;;;;;;5013373;28;20468;-69
2023/10/19 10:29:33;;;;;;;0.30;0.30;;;;;;;;;;5013298;28;20089;-69
2023/10/19 10:31:59;;;;;;;0.20;0.20;;;;;;;;;;5013154;28;20113;-69
2023/10/19 10:34:37;;;;;;;0.47;0.40;;;;;;;;;;4999589;28;20060;-69
2023/10/19 10:37:09;;;;;;;0.63;0.57;;;;;;;;;;5010247;28;20113;-68
2023/10/19 10:39:38;;;;;;;0.63;0.53;;;;;;;;;;5004749;28;20106;-68
2023/10/19 10:42:04;;;;;;;0.50;0.50;;;;;;;;;;4994066;28;20507;-68
2023/10/19 10:44:38;;;;;;;0.80;0.80;;;;;;;;;;5002994;28;20476;-69
2023/10/19 10:47:05;;;;;;;1.80;0.87;;;;;;;;;;4999412;28;20508;-69
2023/10/19 10:49:30;;;;;;;0.73;0.70;;;;;;;;;;5010822;28;20025;-68
2023/10/19 10:51:56;;;;;;;1.63;0.87;;;;;;;;;;5011555;28;20383;-69
2023/10/19 10:54:21;;;;;;;0.30;0.27;;;;;;;;;;5008478;28;20460;-69
2023/10/19 10:56:47;;;;;;;0.30;0.30;;;;;;;;;;5006493;28;20468;-68
2023/10/19 10:59:12;;;;;;;0.60;0.50;;;;;;;;;;5009529;28;20223;-68
2023/10/19 11:01:38;;;;;;;0.73;0.73;;;;;;;;;;4993617;28;20383;-69
2023/10/19 11:04:10;;;;;;;0.47;0.47;;;;;;;;;;4998422;28;20421;-68
2023/10/19 11:06:49;;;;;;;0.50;0.50;;;;;;;;;;5010695;28;20048;-68
2023/10/19 11:09:18;;;;;;;0.57;0.57;;;;;;;;;;5010246;28;20479;-68
2023/10/19 11:11:43;;;;;;;0.40;0.40;;;;;;;;;;5012811;28;20094;-69
2023/10/19 11:14:11;;;;;;;0.37;0.37;;;;;;;;;;5005485;28;20483;-69
2023/10/19 11:16:37;;;;;;;0.70;0.70;;;;;;;;;;5012753;28;20559;-68
2023/10/19 11:19:02;;;;;;;0.20;0.20;;;;;;;;;;5012539;28;20042;-69
2023/10/19 11:21:28;;;;;;;0.30;0.30;;;;;;;;;;5012535;28;20051;-68
2023/10/19 11:23:53;;;;;;;1.23;0.97;;;;;;;;;;5012633;28;20030;-68
2023/10/19 11:26:21;;;;;;;0.23;0.20;;;;;;;;;;5013167;28;20029;-68
2023/10/19 11:28:50;;;;;;;0.30;0.30;;;;;;;;;;5012470;28;20022;-68
2023/10/19 11:31:19;;;;;;;0.93;0.60;;;;;;;;;;5012574;28;20471;-69
2023/10/19 11:33:45;;;;;;;0.40;0.40;;;;;;;;;;5012373;28;20030;-68
2023/10/19 11:36:13;;;;;;;2.03;0.97;;;;;;;;;;5012294;28;20390;-68
2023/10/19 11:38:42;;;;;;;0.60;0.60;;;;;;;;;;5012657;28;20033;-68
2023/10/19 11:41:08;;;;;;;0.50;0.50;;;;;;;;;;5012448;28;20052;-68
2023/10/19 11:43:34;;;;;;;0.67;0.63;;;;;;;;;;5003952;28;20050;-68
2023/10/19 11:45:59;;;;;;;0.40;0.40;;;;;;;;;;4994068;28;20033;-69
2023/10/19 11:48:25;;;;;;;0.30;0.30;;;;;;;;;;5002261;28;20026;-69
2023/10/19 11:50:51;;;;;;;0.23;0.23;;;;;;;;;;5012374;28;20037;-68
2023/10/19 11:53:16;;;;;;;0.30;0.30;;;;;;;;;;5008743;28;20021;-68
2023/10/19 11:55:41;;;;;;;0.93;0.87;;;;;;;;;;5008365;28;20030;-68
2023/10/19 11:58:11;;;;;;;0.30;0.30;;;;;;;;;;5003676;28;20018;-69
2023/10/19 12:00:37;;;;;;;1.10;0.87;;;;;;;;;;5012057;28;20101;-68
2023/10/19 12:03:03;;;;;;;1.07;0.97;;;;;;;;;;5012289;28;20146;-68
2023/10/19 12:05:28;;;;;;;0.77;0.77;;;;;;;;;;5012061;28;20440;-68
2023/10/19 12:07:54;;;;;;;0.23;0.23;;;;;;;;;;5011893;28;20041;-67
2023/10/19 12:10:28;;;;;;;0.37;0.37;;;;;;;;;;4996530;28;20034;-68
2023/10/19 12:12:53;;;;;;;0.30;0.30;;;;;;;;;;4995063;28;20049;-67
2023/10/19 12:15:18;;;;;;;0.73;0.50;;;;;;;;;;5012297;28;20025;-69
2023/10/19 12:17:46;;;;;;;0.37;0.37;;;;;;;;;;5010023;28;20049;-68
2023/10/19 12:20:14;;;;;;;0.23;0.23;;;;;;;;;;5007297;28;20018;-68
2023/10/19 12:22:40;;;;;;;0.20;0.20;;;;;;;;;;5011952;28;20018;-69
2023/10/19 12:25:05;;;;;;;0.57;0.57;;;;;;;;;;5010285;28;20090;-68
2023/10/19 12:27:31;;;;;;;0.40;0.40;;;;;;;;;;5011726;28;20064;-69
2023/10/19 12:29:56;;;;;;;0.20;0.20;;;;;;;;;;5008208;28;20480;-68
2023/10/19 12:32:21;;;;;;;0.47;0.40;;;;;;;;;;5011456;28;20032;-68
2023/10/19 12:34:50;;;;;;;1.07;0.53;;;;;;;;;;5011346;28;20480;-69
2023/10/19 12:37:17;;;;;;;8.73;3.93;;;;;;;;;;5011715;28;20026;-68
2023/10/19 12:39:44;;;;;;;8.17;4.13;;;;;;;;;;5002504;28;20033;-68
2023/10/19 12:42:10;;;;;;;10.87;4.80;;;;;;;;;;5007445;28;20057;-68
2023/10/19 12:44:39;;;;;;;9.33;4.60;;;;;;;;;;5011570;28;20045;-68
2023/10/19 12:47:09;;;;;;;9.87;3.93;;;;;;;;;;5005348;28;20498;-67
2023/10/19 12:49:35;;;;;;;10.97;6.43;;;;;;;;;;5000788;28;20082;-68
2023/10/19 12:52:03;;;;;;;9.30;5.23;;;;;;;;;;5007748;28;20018;-68
2023/10/19 12:54:28;;;;;;;8.63;4.37;;;;;;;;;;5008816;28;20104;-68
2023/10/19 12:56:53;;;;;;;16.83;7.50;;;;;;;;;;5007340;28;20105;-68
2023/10/19 12:59:19;;;;;;;13.93;7.23;;;;;;;;;;5011324;28;20045;-68
2023/10/19 13:01:48;;;;;;;13.23;6.90;;;;;;;;;;5009751;28;20483;-68
2023/10/19 13:04:18;;;;;;;13.23;7.17;;;;;;;;;;5009121;28;20444;-68
2023/10/19 13:06:43;;;;;;;13.67;7.53;;;;;;;;;;5011375;28;20487;-68
2023/10/19 13:09:09;;;;;;;16.83;9.10;;;;;;;;;;5009155;28;20049;-68
2023/10/19 13:11:34;;;;;;;15.47;8.70;;;;;;;;;;4998636;28;20056;-68
2023/10/19 13:14:00;;;;;;;10.13;5.43;;;;;;;;;;5010847;28;20013;-68
2023/10/19 13:16:25;;;;;;;14.80;8.60;;;;;;;;;;5010475;28;20066;-68
2023/10/19 13:18:51;;;;;;;13.07;7.60;;;;;;;;;;5010822;28;20049;-68
2023/10/19 13:21:21;;;;;;;15.90;9.77;;;;;;;;;;5010895;28;20357;-68
2023/10/19 13:23:46;;;;;;;17.07;9.13;;;;;;;;;;5010723;28;20014;-68
2023/10/19 13:28:40;;;;;;;15.47;7.93;;;;;;;;;;5010717;28;20079;-68
2023/10/19 13:31:09;;;;;;;17.40;9.80;;;;;;;;;;5011097;28;20053;-68
2023/10/19 13:33:34;;;;;;;17.10;10.20;;;;;;;;;;5009464;28;20018;-69
2023/10/19 13:35:59;;;;;;;16.60;9.53;;;;;;;;;;5011029;28;20483;-69
2023/10/19 13:38:24;;;;;;;16.87;9.67;;;;;;;;;;5010941;28;20018;-68
2023/10/19 13:40:50;;;;;;;11.77;7.00;;;;;;;;;;5008470;28;20017;-69
2023/10/19 13:43:17;;;;;;;13.87;7.87;;;;;;;;;;5010610;28;20014;-70
2023/10/19 13:45:43;;;;;;;12.83;6.87;;;;;;;;;;5008512;28;20498;-70
2023/10/19 13:48:12;;;;;;;10.20;6.20;;;;;;;;;;5010809;28;20025;-73
2023/10/19 13:50:48;;;;;;;15.27;8.30;;;;;;;;;;5009205;28;20065;-70
2023/10/19 13:53:13;;;;;;;19.13;9.13;;;;;;;;;;5010312;28;20094;-70
2023/10/19 13:55:39;;;;;;;12.37;6.77;;;;;;;;;;5008042;28;20104;-70
2023/10/19 13:58:04;;;;;;;16.50;8.77;;;;;;;;;;5008350;28;20034;-70
2023/10/19 14:00:40;;;;;;;17.00;9.50;;;;;;;;;;5009822;28;20014;-70
2023/10/19 14:03:06;;;;;;;15.70;9.20;;;;;;;;;;5008848;28;20483;-72
2023/10/19 14:05:38;;;;;;;21.33;11.20;;;;;;;;;;5008254;28;20055;-72
2023/10/19 14:08:04;;;;;;;12.73;7.83;;;;;;;;;;5010163;28;20026;-75
2023/10/19 14:10:30;;;;;;;11.23;6.30;;;;;;;;;;5008224;28;20376;-72
2023/10/19 14:12:56;;;;;;;13.70;7.53;;;;;;;;;;5008383;28;20025;-72
2023/10/19 14:15:21;;;;;;;15.43;8.27;;;;;;;;;;5010265;28;20022;-71
2023/10/19 14:17:47;;;;;;;15.50;8.97;;;;;;;;;;5005666;28;20389;-74
2023/10/19 14:20:16;;;;;;;16.87;9.20;;;;;;;;;;4997844;28;20018;-73
2023/10/19 14:22:43;;;;;;;15.97;8.60;;;;;;;;;;5000779;28;20046;-73
2023/10/19 14:25:12;;;;;;;17.30;10.07;;;;;;;;;;4994251;28;20113;-74
2023/10/19 14:27:37;;;;;;;17.40;9.47;;;;;;;;;;5003230;28;20414;-73
2023/10/19 14:30:03;;;;;;;16.90;9.83;;;;;;;;;;4993495;28;20033;-72
2023/10/19 14:32:28;;;;;;;14.60;8.03;;;;;;;;;;5009875;28;20025;-71
2023/10/19 14:34:54;;;;;;;19.77;10.13;;;;;;;;;;5007949;28;20037;-72
2023/10/19 14:37:19;;;;;;;19.27;10.80;;;;;;;;;;5008028;28;20026;-73
2023/10/19 14:39:45;;;;;;;20.47;10.67;;;;;;;;;;4990699;28;20049;-72
2023/10/19 14:42:10;;;;;;;15.90;8.43;;;;;;;;;;5009986;28;20484;-70
2023/10/19 14:44:35;;;;;;;11.20;5.83;;;;;;;;;;5008353;28;20508;-71
2023/10/19 14:47:00;;;;;;;19.40;9.60;;;;;;;;;;5009702;28;20098;-71
2023/10/19 14:49:28;;;;;;;14.37;7.83;;;;;;;;;;5002277;28;20030;-72
2023/10/19 14:51:53;;;;;;;18.07;9.83;;;;;;;;;;4998389;28;20114;-71
2023/10/19 14:54:18;;;;;;;15.90;8.83;;;;;;;;;;4998359;28;20058;-64
2023/10/19 14:56:43;;;;;;;19.53;9.50;;;;;;;;;;5005331;28;20034;-67
2023/10/19 14:59:08;;;;;;;20.17;9.67;;;;;;;;;;4996641;28;20026;-64
2023/10/19 15:01:35;;;;;;;19.23;9.60;;;;;;;;;;5006347;28;20101;-69
2023/10/19 15:04:00;;;;;;;18.07;9.23;;;;;;;;;;5009459;28;20025;-64